Time;durP1;ratioP1;P1;durP2;ratioP2;P2;SDS_P1;SDS_P2;PMS_P1;PMS_P2;Temp;Humidity;BMP_temperature;BMP_pressure;BME280_temperature;BME280_humidity;BME280_pressure;Samples;Min_cycle;Max_cycle;Signal;HPM_P1;HPM_P2
2023/04/06 00:02:06;;;;;;;26.60;13.15;;;;;;;;;;5091435;28;20052;-57
2023/04/06 00:04:33;;;;;;;24.75;13.23;;;9.20;99.90;;;;;;5104578;28;20039;-58
2023/04/06 00:07:03;;;;;;;23.52;12.80;;;9.20;99.90;;;;;;5080378;28;20047;-59
2023/04/06 00:09:31;;;;;;;26.20;12.98;;;9.20;99.90;;;;;;5110545;28;20036;-57
2023/04/06 00:11:58;;;;;;;26.63;14.00;;;9.30;99.90;;;;;;5091248;28;20055;-58
2023/04/06 00:14:26;;;;;;;26.95;13.30;;;9.30;99.90;;;;;;5088600;28;20043;-57
2023/04/06 00:16:55;;;;;;;26.30;13.63;;;9.20;99.90;;;;;;5090735;28;20407;-57
2023/04/06 00:19:22;;;;;;;21.50;11.90;;;9.20;99.90;;;;;;5105582;28;20040;-57
2023/04/06 00:21:50;;;;;;;24.27;12.75;;;9.30;99.90;;;;;;5102078;28;20051;-58
2023/04/06 00:24:19;;;;;;;24.65;12.93;;;9.30;99.90;;;;;;5110049;28;20391;-57
2023/04/06 00:26:47;;;;;;;26.23;12.70;;;9.30;99.90;;;;;;5110279;28;20048;-57
2023/04/06 00:29:15;;;;;;;24.17;12.77;;;9.30;99.90;;;;;;5084459;28;20039;-58
2023/04/06 00:31:42;;;;;;;24.00;12.52;;;9.40;99.90;;;;;;5092296;28;20051;-58
2023/04/06 00:34:10;;;;;;;36.08;13.73;;;9.40;99.90;;;;;;5109406;28;20402;-59
2023/04/06 00:36:38;;;;;;;25.13;11.73;;;9.40;99.90;;;;;;5109314;28;20051;-58
2023/04/06 00:39:06;;;;;;;23.67;12.13;;;9.40;99.90;;;;;;5098856;28;20048;-58
2023/04/06 00:41:34;;;;;;;20.55;10.40;;;9.40;99.90;;;;;;5109473;28;20046;-59
2023/04/06 00:44:01;;;;;;;18.08;9.48;;;9.40;99.90;;;;;;5083502;28;20039;-59
2023/04/06 00:46:30;;;;;;;17.73;9.00;;;9.40;99.90;;;;;;5109918;28;20040;-58
2023/04/06 00:48:57;;;;;;;18.75;10.57;;;9.40;99.90;;;;;;5107565;28;20039;-59
2023/04/06 00:51:25;;;;;;;21.08;10.52;;;9.40;99.90;;;;;;5095632;28;20048;-59
2023/04/06 00:53:53;;;;;;;22.60;11.07;;;9.40;99.90;;;;;;5091344;28;20040;-58
2023/04/06 00:56:23;;;;;;;16.63;8.85;;;9.40;99.90;;;;;;5087389;28;20040;-58
2023/04/06 00:58:53;;;;;;;20.38;9.50;;;9.40;99.90;;;;;;5091761;28;20391;-58
2023/04/06 01:01:21;;;;;;;14.77;8.05;;;9.40;99.90;;;;;;5089734;28;20052;-58
2023/04/06 01:03:51;;;;;;;12.45;7.32;;;9.40;99.90;;;;;;5081934;28;20040;-58
2023/04/06 01:06:20;;;;;;;12.97;7.07;;;9.40;99.90;;;;;;5087950;28;20061;-57
2023/04/06 01:08:57;;;;;;;14.80;7.95;;;9.40;99.90;;;;;;5089839;28;20295;-58
2023/04/06 01:11:26;;;;;;;10.40;5.70;;;9.50;99.90;;;;;;5070956;28;20554;-58
2023/04/06 01:13:55;;;;;;;10.32;5.30;;;9.50;99.90;;;;;;5096877;28;20050;-58
2023/04/06 01:16:42;;;;;;;9.88;5.55;;;9.50;99.90;;;;;;5093550;28;20036;-58
2023/04/06 01:19:14;;;;;;;9.05;5.55;;;9.50;99.90;;;;;;5082402;28;20032;-58
2023/04/06 01:21:46;;;;;;;9.02;5.15;;;9.50;99.90;;;;;;5088186;28;20047;-59
2023/04/06 01:24:23;;;;;;;8.82;4.65;;;9.50;99.90;;;;;;5089159;28;20048;-58
2023/04/06 01:27:20;;;;;;;7.43;4.80;;;9.50;99.90;;;;;;5035980;28;20464;-58
2023/04/06 01:30:04;;;;;;;7.40;3.80;;;9.50;99.90;;;;;;5095011;28;20040;-57
2023/04/06 01:32:49;;;;;;;6.40;3.95;;;9.50;99.90;;;;;;5079267;28;20047;-58
2023/04/06 01:35:27;;;;;;;8.07;4.63;;;9.60;99.90;;;;;;5085542;28;20066;-58
2023/04/06 01:38:14;;;;;;;8.00;4.40;;;9.60;99.90;;;;;;5090150;28;20048;-58
2023/04/06 01:40:43;;;;;;;6.77;4.10;;;9.60;99.90;;;;;;5109651;28;20054;-57
2023/04/06 01:43:11;;;;;;;10.52;4.63;;;9.60;99.90;;;;;;5090425;28;20301;-59
2023/04/06 01:45:55;;;;;;;6.22;4.05;;;9.60;99.90;;;;;;5090168;28;20048;-57
2023/04/06 01:48:28;;;;;;;6.22;3.92;;;9.60;99.90;;;;;;5091153;28;20051;-57
2023/04/06 01:50:56;;;;;;;6.13;4.00;;;9.60;99.90;;;;;;5111031;28;20087;-57
2023/04/06 01:53:29;;;;;;;7.32;4.28;;;9.60;99.90;;;;;;5093368;28;20054;-57
2023/04/06 01:56:03;;;;;;;8.07;4.68;;;9.60;99.90;;;;;;5093166;28;20048;-56
2023/04/06 01:58:34;;;;;;;8.40;3.92;;;9.60;99.90;;;;;;5103794;28;20051;-55
2023/04/06 02:01:03;;;;;;;7.95;4.53;;;9.60;99.90;;;;;;5107699;28;20390;-56
2023/04/06 02:03:41;;;;;;;6.93;4.63;;;9.60;99.90;;;;;;5110369;28;20066;-57
2023/04/06 02:06:10;;;;;;;7.80;4.45;;;9.60;99.90;;;;;;5109065;28;20043;-56
2023/04/06 02:08:40;;;;;;;6.65;3.70;;;9.60;99.90;;;;;;5107964;28;20067;-58
2023/04/06 02:11:08;;;;;;;8.43;4.30;;;9.60;99.90;;;;;;5098140;28;20040;-56
2023/04/06 02:13:46;;;;;;;6.30;3.60;;;9.60;99.90;;;;;;5088591;28;20038;-57
2023/04/06 02:16:15;;;;;;;7.97;4.35;;;9.60;99.90;;;;;;5109034;28;20043;-57
2023/04/06 02:18:45;;;;;;;5.85;3.85;;;9.60;99.90;;;;;;5097335;28;20388;-57
2023/04/06 02:21:13;;;;;;;5.05;3.08;;;9.60;99.90;;;;;;5086863;28;20043;-57
2023/04/06 02:23:41;;;;;;;6.50;3.28;;;9.60;99.90;;;;;;5079502;28;20647;-57
2023/04/06 02:26:08;;;;;;;5.63;2.33;;;9.60;99.90;;;;;;5088187;28;20032;-58
2023/04/06 02:28:36;;;;;;;4.75;2.97;;;9.60;99.90;;;;;;5104491;28;20055;-57
2023/04/06 02:31:03;;;;;;;4.43;2.45;;;9.60;99.90;;;;;;5099273;28;20067;-56
2023/04/06 02:33:31;;;;;;;3.00;1.88;;;9.60;99.90;;;;;;5088383;28;20048;-57
2023/04/06 02:36:02;;;;;;;2.63;1.70;;;9.60;99.90;;;;;;5091475;28;20044;-58
2023/04/06 02:38:29;;;;;;;2.15;1.25;;;9.60;99.90;;;;;;5093028;28;20039;-58
2023/04/06 02:41:00;;;;;;;2.53;1.60;;;9.60;99.90;;;;;;5089677;28;20051;-58
2023/04/06 02:43:29;;;;;;;1.45;1.20;;;9.60;99.90;;;;;;5089027;28;20047;-57
2023/04/06 02:46:08;;;;;;;2.30;1.30;;;9.60;99.90;;;;;;5073103;28;20047;-57
2023/04/06 02:48:38;;;;;;;;;;;9.60;99.90;;;;;;5091664;28;20047;-57
2023/04/06 02:51:06;;;;;;;1.63;1.13;;;9.60;99.90;;;;;;5111299;28;19919;-57
2023/04/06 02:53:34;;;;;;;1.50;1.30;;;9.60;99.90;;;;;;5075536;28;20040;-57
2023/04/06 02:56:02;;;;;;;1.90;1.08;;;9.70;99.90;;;;;;5073252;28;20040;-58
2023/04/06 02:58:41;;;;;;;2.00;1.13;;;9.60;99.90;;;;;;5075748;28;20043;-57
2023/04/06 03:01:09;;;;;;;3.30;1.45;;;9.70;99.90;;;;;;5072826;28;20484;-57
2023/04/06 03:03:38;;;;;;;1.95;1.55;;;9.70;99.90;;;;;;5073288;28;20052;-58
2023/04/06 03:06:12;;;;;;;4.85;1.63;;;9.60;99.90;;;;;;5085011;28;20032;-57
2023/04/06 03:08:40;;;;;;;2.30;1.75;;;9.60;99.90;;;;;;5093245;28;20521;-58
2023/04/06 03:11:08;;;;;;;3.88;2.50;;;9.60;99.90;;;;;;5111356;28;20047;-58
2023/04/06 03:13:40;;;;;;;4.93;2.00;;;9.60;99.90;;;;;;5093740;28;20044;-59
2023/04/06 03:16:08;;;;;;;4.60;2.78;;;9.60;99.90;;;;;;5114238;28;20043;-58
2023/04/06 03:18:35;;;;;;;5.78;2.80;;;9.60;99.90;;;;;;5093677;28;20055;-59
2023/04/06 03:21:03;;;;;;;3.92;2.55;;;9.60;99.90;;;;;;5094569;28;20048;-59
2023/04/06 03:23:42;;;;;;;5.57;3.20;;;9.50;99.90;;;;;;5076491;28;20055;-58
2023/04/06 03:26:10;;;;;;;3.67;2.90;;;9.60;99.90;;;;;;5076428;28;20047;-58
2023/04/06 03:28:38;;;;;;;3.97;2.90;;;9.60;99.90;;;;;;5104688;28;20048;-58
2023/04/06 03:31:06;;;;;;;6.88;2.95;;;9.60;99.90;;;;;;5093246;28;20032;-57
2023/04/06 03:33:45;;;;;;;5.57;3.65;;;9.60;99.90;;;;;;5077469;28;20036;-58
2023/04/06 03:36:26;;;;;;;6.60;3.58;;;9.60;99.90;;;;;;5093389;28;20048;-58
2023/04/06 03:38:56;;;;;;;5.20;4.00;;;9.60;99.90;;;;;;5091899;28;20059;-59
2023/04/06 03:41:24;;;;;;;9.10;4.85;;;9.50;99.90;;;;;;5089735;28;20037;-58
2023/04/06 03:44:06;;;;;;;8.30;5.47;;;9.60;99.90;;;;;;5095898;28;20563;-58
2023/04/06 03:46:33;;;;;;;8.93;4.90;;;9.60;99.90;;;;;;5084271;28;20036;-56
2023/04/06 03:49:01;;;;;;;9.82;5.40;;;9.60;99.90;;;;;;5099655;28;20048;-56
2023/04/06 03:51:29;;;;;;;12.02;5.82;;;9.60;99.90;;;;;;5091210;28;20036;-58
2023/04/06 03:53:57;;;;;;;10.27;6.57;;;9.60;99.90;;;;;;5065241;28;20040;-58
2023/04/06 03:56:24;;;;;;;12.07;6.68;;;9.60;99.90;;;;;;5093865;28;20044;-57
2023/04/06 03:58:54;;;;;;;10.48;7.07;;;9.60;99.90;;;;;;5086458;28;20043;-57
2023/04/06 04:01:21;;;;;;;11.65;7.07;;;9.60;99.90;;;;;;5081529;28;20049;-57
2023/04/06 04:03:49;;;;;;;13.38;7.47;;;9.60;99.90;;;;;;5058846;28;20048;-56
2023/04/06 04:06:18;;;;;;;10.93;6.38;;;9.60;99.90;;;;;;5088946;28;20411;-56
2023/04/06 04:08:46;;;;;;;11.77;6.75;;;9.60;99.90;;;;;;5106346;28;20044;-57
2023/04/06 04:11:15;;;;;;;11.00;7.00;;;9.60;99.90;;;;;;5071771;28;20043;-57
2023/04/06 04:13:44;;;;;;;11.45;6.53;;;9.60;99.90;;;;;;5092530;28;20410;-57
2023/04/06 04:16:12;;;;;;;6.50;4.40;;;9.60;99.90;;;;;;5091603;28;20053;-57
2023/04/06 04:18:40;;;;;;;8.70;4.95;;;9.60;99.90;;;;;;5093472;28;20052;-58
2023/04/06 04:21:07;;;;;;;5.80;2.95;;;9.60;99.90;;;;;;5093448;28;20032;-57
2023/04/06 04:23:38;;;;;;;5.10;2.70;;;9.60;99.90;;;;;;5092069;28;20059;-57
2023/04/06 04:26:08;;;;;;;4.40;3.03;;;9.40;99.90;;;;;;5109034;28;20506;-57
2023/04/06 04:28:36;;;;;;;4.18;2.67;;;9.60;99.90;;;;;;5108676;28;20052;-58
2023/04/06 04:31:04;;;;;;;4.57;2.80;;;9.60;99.90;;;;;;5109282;28;20032;-57
2023/04/06 04:33:34;;;;;;;5.40;2.50;;;9.60;99.90;;;;;;5109006;28;20044;-57
2023/04/06 04:36:07;;;;;;;3.80;2.30;;;9.60;99.90;;;;;;5091529;28;20041;-56
2023/04/06 04:38:40;;;;;;;5.35;2.63;;;9.60;99.90;;;;;;5092097;28;20051;-57
2023/04/06 04:41:07;;;;;;;4.75;3.00;;;9.60;99.90;;;;;;5092253;28;20051;-58
2023/04/06 04:43:38;;;;;;;5.18;2.65;;;9.60;99.90;;;;;;5109189;28;20393;-57
2023/04/06 04:46:06;;;;;;;6.28;2.75;;;9.60;99.90;;;;;;5091130;28;20044;-57
2023/04/06 04:48:40;;;;;;;4.90;2.63;;;9.60;99.90;;;;;;5083273;28;20051;-57
2023/04/06 04:51:08;;;;;;;8.85;2.65;;;9.60;99.90;;;;;;5087012;28;20047;-58
2023/04/06 04:54:08;;;;;;;4.40;2.40;;;9.60;99.90;;;;;;5074068;28;20059;-59
2023/04/06 04:56:36;;;;;;;7.53;3.67;;;9.60;99.90;;;;;;5094589;28;20036;-58
2023/04/06 04:59:24;;;;;;;5.22;3.35;;;9.60;99.90;;;;;;5085952;28;20409;-56
2023/04/06 05:01:58;;;;;;;18.30;3.70;;;9.50;99.90;;;;;;5099985;28;20040;-58
2023/04/06 05:04:40;;;;;;;9.77;3.90;;;9.50;99.90;;;;;;5084949;28;20300;-57
2023/04/06 05:07:11;;;;;;;8.00;3.47;;;9.50;99.90;;;;;;5098737;28;20043;-57
2023/04/06 05:09:41;;;;;;;8.95;3.92;;;9.60;99.90;;;;;;5094717;28;20369;-58
2023/04/06 05:12:09;;;;;;;7.40;3.80;;;9.50;99.90;;;;;;5084837;28;20048;-58
2023/04/06 05:14:47;;;;;;;11.18;4.25;;;9.50;99.90;;;;;;5085577;28;20047;-57
2023/04/06 05:17:17;;;;;;;11.00;4.10;;;9.50;99.90;;;;;;5102112;28;20027;-58
2023/04/06 05:19:46;;;;;;;12.13;5.00;;;9.50;99.90;;;;;;5088058;28;20040;-57
2023/04/06 05:22:17;;;;;;;10.98;5.43;;;9.50;99.90;;;;;;5103946;28;20487;-57
2023/04/06 05:24:50;;;;;;;11.90;5.22;;;9.50;99.90;;;;;;5073058;28;20048;-57
2023/04/06 05:27:19;;;;;;;15.65;5.60;;;;;;;;;;5066161;28;20263;-57
2023/04/06 05:29:47;;;;;;;15.90;6.27;;;9.40;99.90;;;;;;5069115;28;20055;-56
2023/04/06 05:32:16;;;;;;;15.13;7.25;;;9.40;99.90;;;;;;5086627;28;20048;-56
2023/04/06 05:34:45;;;;;;;20.00;8.00;;;9.40;99.90;;;;;;5089147;28;20518;-57
2023/04/06 05:37:13;;;;;;;23.80;9.57;;;9.30;99.90;;;;;;5090484;28;20292;-57
2023/04/06 05:39:41;;;;;;;23.20;10.20;;;9.30;99.90;;;;;;5109020;28;20059;-57
2023/04/06 05:42:09;;;;;;;32.80;12.27;;;9.30;99.90;;;;;;5078992;28;20040;-58
2023/04/06 05:44:50;;;;;;;39.08;13.80;;;;;;;;;;5087067;28;20070;-55
2023/04/06 05:47:18;;;;;;;39.08;14.40;;;9.30;99.90;;;;;;5077375;28;20042;-58
2023/04/06 05:49:51;;;;;;;44.08;15.07;;;9.20;99.90;;;;;;5067790;28;20048;-58
2023/04/06 05:52:29;;;;;;;39.55;15.13;;;9.20;99.90;;;;;;5068646;28;20044;-58
2023/04/06 05:54:57;;;;;;;34.75;12.55;;;9.20;99.90;;;;;;5104303;28;20054;-56
2023/04/06 05:57:26;;;;;;;29.27;10.63;;;;;;;;;;5080476;28;20040;-57
2023/04/06 05:59:55;;;;;;;35.38;12.30;;;9.20;99.90;;;;;;5082048;28;20394;-57
2023/04/06 06:02:26;;;;;;;35.70;11.68;;;9.10;99.90;;;;;;5082694;28;20043;-59
2023/04/06 06:04:55;;;;;;;39.37;11.47;;;9.10;99.90;;;;;;5091669;28;20509;-57
2023/04/06 06:07:25;;;;;;;51.08;16.10;;;9.10;99.90;;;;;;5083943;28;20605;-58
2023/04/06 06:09:58;;;;;;;51.78;15.57;;;9.10;99.90;;;;;;5079077;28;20040;-57
2023/04/06 06:12:32;;;;;;;56.55;16.63;;;9.10;99.90;;;;;;5089808;28;20402;-56
2023/04/06 06:15:01;;;;;;;58.58;15.73;;;9.10;99.90;;;;;;5087044;28;20395;-57
2023/04/06 06:17:32;;;;;;;42.72;14.32;;;9.10;99.90;;;;;;5088278;28;20586;-57
2023/04/06 06:20:00;;;;;;;62.70;18.13;;;9.00;99.90;;;;;;5082488;28;20414;-56
2023/04/06 06:22:29;;;;;;;44.30;17.63;;;9.00;99.90;;;;;;5088906;28;20043;-55
2023/04/06 06:24:57;;;;;;;53.08;18.92;;;9.00;99.90;;;;;;5073890;28;20404;-56
2023/04/06 06:27:25;;;;;;;53.45;17.75;;;9.00;99.90;;;;;;5100508;28;20479;-55
2023/04/06 06:29:52;;;;;;;44.33;14.95;;;8.90;99.90;;;;;;5108372;28;20190;-57
2023/04/06 06:32:20;;;;;;;39.65;14.68;;;8.90;99.90;;;;;;5088737;28;20058;-57
2023/04/06 06:34:51;;;;;;;38.53;15.00;;;8.90;99.90;;;;;;5082531;28;20462;-56
2023/04/06 06:37:19;;;;;;;33.10;14.88;;;8.90;99.90;;;;;;5077276;28;20039;-56
2023/04/06 06:39:48;;;;;;;35.95;12.60;;;8.90;99.90;;;;;;5089335;28;20043;-57
2023/04/06 06:42:16;;;;;;;32.35;12.55;;;8.90;99.90;;;;;;5089506;28;20043;-58
2023/04/06 06:45:07;;;;;;;31.38;12.27;;;8.80;99.90;;;;;;5105157;28;20048;-56
2023/04/06 06:47:38;;;;;;;20.92;9.60;;;8.80;99.90;;;;;;5106542;28;20047;-56
2023/04/06 06:50:08;;;;;;;16.27;8.23;;;10.00;99.90;;;;;;5112009;28;20057;-58
2023/04/06 06:52:36;;;;;;;26.85;9.65;;;8.80;99.90;;;;;;5112213;28;20043;-58
2023/04/06 06:55:03;;;;;;;25.95;10.80;;;8.70;99.90;;;;;;5104258;28;20040;-57
2023/04/06 06:57:33;;;;;;;30.48;10.60;;;8.70;99.90;;;;;;5075127;28;20145;-55
2023/04/06 07:00:03;;;;;;;19.30;10.75;;;8.70;99.90;;;;;;5089872;28;20059;-57
2023/04/06 07:02:30;;;;;;;22.38;9.00;;;8.70;99.90;;;;;;5090045;28;20036;-57
2023/04/06 07:04:58;;;;;;;26.20;9.80;;;8.70;99.90;;;;;;5075303;28;20423;-56
2023/04/06 07:07:26;;;;;;;29.33;9.63;;;8.70;99.90;;;;;;5102293;28;20398;-57
2023/04/06 07:09:53;;;;;;;22.52;9.82;;;8.70;99.90;;;;;;5094065;28;20051;-57
2023/04/06 07:12:21;;;;;;;22.10;9.50;;;8.70;99.90;;;;;;5111627;28;20226;-55
2023/04/06 07:14:49;;;;;;;23.30;10.40;;;8.70;99.90;;;;;;5111936;28;20509;-56
2023/04/06 07:17:17;;;;;;;25.50;9.90;;;8.70;99.90;;;;;;5105491;28;20402;-55
2023/04/06 07:19:45;;;;;;;24.35;8.40;;;8.70;99.90;;;;;;5081307;28;20397;-57
2023/04/06 07:22:13;;;;;;;20.15;7.80;;;8.70;99.90;;;;;;5093059;28;20048;-57
2023/04/06 07:24:41;;;;;;;18.90;7.55;;;8.70;99.90;;;;;;5093446;28;20051;-58
2023/04/06 07:27:08;;;;;;;18.27;7.03;;;8.70;99.90;;;;;;5093403;28;20040;-56
2023/04/06 07:29:36;;;;;;;23.33;7.15;;;8.70;99.90;;;;;;5102195;28;20048;-56
2023/04/06 07:32:07;;;;;;;17.65;6.25;;;8.70;99.90;;;;;;5086070;28;20048;-57
2023/04/06 07:34:35;;;;;;;25.27;6.15;;;8.70;99.90;;;;;;5110378;28;20058;-56
2023/04/06 07:37:06;;;;;;;13.30;4.68;;;8.70;99.90;;;;;;5093791;28;20047;-58
2023/04/06 07:39:34;;;;;;;15.13;5.05;;;8.80;99.90;;;;;;5092490;28;20043;-57
2023/04/06 07:42:02;;;;;;;12.27;5.70;;;8.80;99.90;;;;;;5090713;28;20044;-56
2023/04/06 07:44:30;;;;;;;21.63;4.35;;;8.80;99.90;;;;;;5093452;28;20047;-57
2023/04/06 07:47:01;;;;;;;16.25;4.38;;;8.80;99.90;;;;;;5089625;28;20040;-58
2023/04/06 07:49:29;;;;;;;15.98;5.28;;;8.80;99.90;;;;;;5110710;28;20035;-57
2023/04/06 07:51:57;;;;;;;16.05;5.47;;;8.90;99.90;;;;;;5108673;28;20047;-57
2023/04/06 07:54:24;;;;;;;11.90;4.28;;;8.90;99.90;;;;;;5093329;28;20036;-57
2023/04/06 07:56:52;;;;;;;8.70;3.88;;;8.90;99.90;;;;;;5092727;28;20091;-56
2023/04/06 07:59:20;;;;;;;7.78;3.30;;;9.00;99.90;;;;;;5109954;28;20054;-56
2023/04/06 08:01:48;;;;;;;12.18;2.80;;;8.90;99.90;;;;;;5108560;28;20043;-56
2023/04/06 08:04:16;;;;;;;14.07;3.00;;;8.90;99.90;;;;;;5109582;28;20040;-57
2023/04/06 08:06:44;;;;;;;20.55;4.53;;;8.90;99.90;;;;;;5111253;28;20047;-56
2023/04/06 08:09:11;;;;;;;17.00;5.88;;;8.90;99.90;;;;;;5108350;28;20047;-59
2023/04/06 08:11:39;;;;;;;13.93;3.25;;;8.90;99.90;;;;;;5084692;28;20047;-57
2023/04/06 08:14:07;;;;;;;14.88;2.92;;;8.90;99.90;;;;;;5108091;28;20039;-57
2023/04/06 08:16:35;;;;;;;17.98;2.15;;;9.00;99.90;;;;;;5109925;28;20039;-57
2023/04/06 08:19:04;;;;;;;13.40;1.70;;;9.00;99.90;;;;;;5097589;28;20051;-57
2023/04/06 08:21:33;;;;;;;8.43;1.73;;;9.10;99.90;;;;;;5088194;28;20048;-56
2023/04/06 08:24:01;;;;;;;24.48;2.35;;;9.10;99.90;;;;;;5090606;28;20044;-57
2023/04/06 08:26:29;;;;;;;11.27;2.33;;;9.10;99.90;;;;;;5086164;28;20043;-56
2023/04/06 08:28:57;;;;;;;10.93;2.00;;;9.10;99.90;;;;;;5101193;28;20055;-57
2023/04/06 08:31:26;;;;;;;8.80;2.15;;;9.10;99.90;;;;;;5082267;28;20423;-56
2023/04/06 08:33:53;;;;;;;13.30;2.13;;;9.20;99.90;;;;;;5081106;28;20054;-55
2023/04/06 08:36:22;;;;;;;23.73;3.80;;;9.30;99.90;;;;;;5081057;28;20048;-58
2023/04/06 08:38:50;;;;;;;9.70;2.47;;;9.30;99.90;;;;;;5101296;28;20031;-57
2023/04/06 08:41:18;;;;;;;11.95;2.75;;;9.30;99.90;;;;;;5105031;28;20036;-59
2023/04/06 08:44:00;;;;;;;11.85;2.67;;;9.30;99.90;;;;;;5106908;28;20487;-56
2023/04/06 08:46:30;;;;;;;17.02;2.88;;;9.30;99.90;;;;;;5108853;28;20394;-58
2023/04/06 08:49:00;;;;;;;9.60;2.50;;;9.30;99.90;;;;;;5105097;28;20062;-58
2023/04/06 08:51:29;;;;;;;13.77;3.60;;;9.30;99.90;;;;;;5106248;28;20046;-57
2023/04/06 08:53:59;;;;;;;14.15;4.32;;;9.50;99.90;;;;;;5101097;28;20055;-57
2023/04/06 08:56:28;;;;;;;11.77;4.30;;;9.60;99.90;;;;;;5102016;28;20036;-58
2023/04/06 08:58:57;;;;;;;17.60;6.30;;;9.60;99.90;;;;;;5104788;28;20055;-56
2023/04/06 09:01:29;;;;;;;12.57;5.53;;;9.80;99.90;;;;;;5106419;28;20307;-57
2023/04/06 09:04:00;;;;;;;22.20;5.50;;;9.70;99.90;;;;;;5104527;28;20043;-57
2023/04/06 09:06:28;;;;;;;13.32;5.65;;;9.80;99.90;;;;;;5105178;28;20047;-56
2023/04/06 09:08:56;;;;;;;13.73;4.38;;;9.70;99.90;;;;;;5102476;28;20048;-57
2023/04/06 09:11:25;;;;;;;10.07;4.50;;;9.50;99.90;;;;;;5102513;28;20461;-56
2023/04/06 09:13:55;;;;;;;15.90;4.78;;;9.50;99.90;;;;;;5106094;28;20059;-56
2023/04/06 09:16:23;;;;;;;19.45;4.95;;;9.40;99.90;;;;;;5102305;28;20035;-56
2023/04/06 09:18:51;;;;;;;9.93;4.75;;;9.30;99.90;;;;;;5104635;28;20047;-57
2023/04/06 09:21:19;;;;;;;16.73;5.20;;;9.50;99.90;;;;;;5092384;28;20391;-57
2023/04/06 09:24:01;;;;;;;12.40;4.72;;;9.40;99.90;;;;;;5100386;28;20043;-57
2023/04/06 09:26:30;;;;;;;15.07;5.18;;;9.60;99.90;;;;;;5102409;28;20050;-57
2023/04/06 09:29:00;;;;;;;10.75;4.10;;;9.60;99.90;;;;;;5085564;28;20530;-57
2023/04/06 09:31:32;;;;;;;9.48;4.00;;;9.80;99.90;;;;;;5099223;28;20043;-57
2023/04/06 09:34:01;;;;;;;9.07;2.75;;;9.80;99.90;;;;;;5103778;28;20042;-57
2023/04/06 09:36:35;;;;;;;10.23;2.75;;;9.90;99.90;;;;;;5097158;28;20459;-57
2023/04/06 09:39:04;;;;;;;8.93;1.90;;;10.00;99.90;;;;;;5098649;28;20399;-55
2023/04/06 09:41:33;;;;;;;19.20;3.75;;;10.10;99.90;;;;;;5098915;28;20059;-58
2023/04/06 09:44:08;;;;;;;4.82;2.42;;;10.20;99.90;;;;;;5099265;28;20047;-57
2023/04/06 09:46:40;;;;;;;6.18;2.40;;;10.30;99.90;;;;;;5101643;28;20044;-57
2023/04/06 09:49:30;;;;;;;7.80;2.20;;;10.30;99.90;;;;;;5087030;28;20048;-57
2023/04/06 09:52:01;;;;;;;9.07;2.05;;;10.40;99.90;;;;;;5100763;28;20042;-58
2023/04/06 09:54:30;;;;;;;8.95;2.65;;;10.50;99.90;;;;;;5090226;28;20048;-57
2023/04/06 09:57:10;;;;;;;11.13;2.40;;;10.70;99.90;;;;;;5084416;28;20052;-57
2023/04/06 09:59:57;;;;;;;13.50;1.42;;;10.80;99.90;;;;;;5084288;28;20043;-57
2023/04/06 10:02:49;;;;;;;4.95;1.42;;;10.80;99.90;;;;;;5099606;28;20376;-57
2023/04/06 10:05:41;;;;;;;8.05;1.05;;;10.70;99.90;;;;;;5087222;28;20040;-58
2023/04/06 10:08:10;;;;;;;7.35;0.93;;;10.60;99.90;;;;;;5088777;28;20057;-56
2023/04/06 10:10:38;;;;;;;8.32;1.30;;;10.60;99.90;;;;;;5103830;28;20058;-58
2023/04/06 10:13:07;;;;;;;5.82;1.02;;;10.70;99.90;;;;;;5086770;28;20051;-57
2023/04/06 10:15:39;;;;;;;9.10;2.53;;;10.70;99.90;;;;;;5103673;28;20043;-57
2023/04/06 10:18:07;;;;;;;28.38;4.95;;;10.80;99.90;;;;;;5085966;28;20047;-57
2023/04/06 10:21:01;;;;;;;14.80;2.90;;;10.80;99.90;;;;;;5104348;28;20047;-56
2023/04/06 10:23:43;;;;;;;9.02;1.90;;;10.70;99.90;;;;;;5094289;28;20043;-59
2023/04/06 10:26:16;;;;;;;7.93;2.08;;;10.60;99.90;;;;;;5092032;28;20048;-58
2023/04/06 10:28:46;;;;;;;9.70;1.25;;;10.60;99.90;;;;;;5095345;28;20043;-57
2023/04/06 10:31:15;;;;;;;11.45;1.20;;;10.50;99.90;;;;;;5096749;28;20048;-57
2023/04/06 10:33:57;;;;;;;10.15;1.95;;;10.30;99.90;;;;;;5099185;28;20471;-57
2023/04/06 10:36:26;;;;;;;14.43;2.38;;;10.30;99.90;;;;;;5094055;28;20082;-57
2023/04/06 10:38:57;;;;;;;7.10;2.03;;;10.20;99.90;;;;;;5098780;28;20715;-57
2023/04/06 10:41:33;;;;;;;9.60;1.60;;;10.20;99.90;;;;;;5095849;28;20062;-57
2023/04/06 10:44:02;;;;;;;11.15;2.33;;;10.20;99.90;;;;;;5090259;28;20044;-57
2023/04/06 10:46:33;;;;;;;5.72;1.17;;;10.30;99.90;;;;;;5085955;28;20649;-58
2023/04/06 10:49:14;;;;;;;5.55;1.10;;;10.40;99.90;;;;;;5102218;28;20594;-58
2023/04/06 10:51:41;;;;;;;12.77;1.50;;;10.70;99.90;;;;;;5092136;28;20048;-58
2023/04/06 10:54:13;;;;;;;8.02;1.55;;;10.80;99.90;;;;;;5094987;28;20396;-59
2023/04/06 10:56:41;;;;;;;8.00;1.75;;;11.00;99.90;;;;;;5100712;28;20051;-58
2023/04/06 10:59:09;;;;;;;11.00;1.48;;;11.00;99.90;;;;;;5100301;28;20235;-57
2023/04/06 11:01:37;;;;;;;6.90;2.13;;;11.00;99.90;;;;;;5092447;28;20043;-56
2023/04/06 11:04:04;;;;;;;11.85;3.10;;;11.00;99.90;;;;;;5095644;28;20366;-55
2023/04/06 11:06:38;;;;;;;15.95;2.00;;;10.80;99.90;;;;;;5102370;28;20051;-55
2023/04/06 11:09:06;;;;;;;14.63;1.83;;;10.80;99.90;;;;;;5093868;28;20268;-59
2023/04/06 11:11:39;;;;;;;8.50;1.27;;;10.70;99.90;;;;;;5102525;28;20038;-57
2023/04/06 11:14:09;;;;;;;5.28;1.02;;;10.90;99.90;;;;;;5102793;28;20039;-57
2023/04/06 11:16:38;;;;;;;3.17;0.70;;;;;;;;;;5103788;28;20051;-59
2023/04/06 11:19:06;;;;;;;2.35;0.73;;;;;;;;;;5100288;28;20048;-56
2023/04/06 11:21:46;;;;;;;7.28;0.88;;;12.30;99.90;;;;;;5101783;28;20063;-58
2023/04/06 11:24:19;;;;;;;7.35;1.00;;;11.40;99.90;;;;;;5075218;28;20055;-57
2023/04/06 11:26:55;;;;;;;12.65;1.00;;;11.50;99.90;;;;;;5097314;28;20074;-56
2023/04/06 11:29:30;;;;;;;3.72;0.75;;;11.60;99.90;;;;;;5092557;28;20036;-57
2023/04/06 11:32:03;;;;;;;3.08;0.80;;;11.60;99.90;;;;;;5098874;28;20039;-58
2023/04/06 11:34:38;;;;;;;7.80;1.40;;;11.50;99.90;;;;;;5083119;28;20541;-57
2023/04/06 11:37:10;;;;;;;4.57;1.35;;;11.60;99.90;;;;;;5071449;28;20048;-58
2023/04/06 11:39:40;;;;;;;7.55;1.33;;;11.50;99.90;;;;;;5083748;28;20059;-58
2023/04/06 11:42:09;;;;;;;9.48;1.52;;;11.60;99.90;;;;;;5083162;28;20043;-58
2023/04/06 11:44:49;;;;;;;7.28;1.35;;;11.70;99.90;;;;;;5096133;28;20044;-56
2023/04/06 11:47:22;;;;;;;6.15;1.40;;;11.80;99.90;;;;;;5074997;28;20708;-56
2023/04/06 11:49:53;;;;;;;9.27;1.63;;;11.80;99.90;;;;;;5094135;28;20043;-57
2023/04/06 11:52:24;;;;;;;9.07;1.75;;;11.90;99.90;;;;;;5093010;28;20065;-56
2023/04/06 11:54:53;;;;;;;15.23;1.52;;;12.10;99.90;;;;;;5098284;28;20483;-58
2023/04/06 11:57:25;;;;;;;5.60;1.00;;;12.70;99.90;;;;;;5103117;28;20035;-58
2023/04/06 11:59:53;;;;;;;5.40;1.17;;;12.70;99.90;;;;;;5097052;28;20048;-58
2023/04/06 12:02:21;;;;;;;11.45;1.30;;;13.10;99.90;;;;;;5102937;28;20039;-56
2023/04/06 12:04:49;;;;;;;5.93;1.00;;;13.20;99.90;;;;;;5095892;28;20055;-57
2023/04/06 12:07:17;;;;;;;6.85;1.08;;;13.20;99.90;;;;;;5095446;28;20044;-58
2023/04/06 12:09:45;;;;;;;6.70;1.10;;;13.20;99.90;;;;;;5101079;28;20031;-58
2023/04/06 12:12:12;;;;;;;8.32;1.30;;;13.30;99.90;;;;;;5107706;28;20043;-57
2023/04/06 12:14:40;;;;;;;9.65;1.20;;;13.20;99.90;;;;;;5088732;28;20129;-58
2023/04/06 12:17:11;;;;;;;9.77;1.83;;;13.10;99.90;;;;;;5091021;28;20557;-57
2023/04/06 12:19:39;;;;;;;8.13;2.03;;;;;;;;;;5106578;28;20044;-58
2023/04/06 12:22:06;;;;;;;7.13;1.67;;;12.80;99.90;;;;;;5107739;28;20043;-57
2023/04/06 12:24:34;;;;;;;7.32;0.73;;;12.70;99.90;;;;;;5110541;28;20528;-56
2023/04/06 12:27:02;;;;;;;10.98;1.10;;;12.50;99.90;;;;;;5108098;28;20036;-58
2023/04/06 12:29:40;;;;;;;12.32;1.20;;;12.20;99.90;;;;;;5100115;28;20036;-57
2023/04/06 12:32:08;;;;;;;7.85;1.60;;;12.10;99.90;;;;;;5090457;28;20752;-57
2023/04/06 12:34:38;;;;;;;12.23;2.17;;;11.80;99.90;;;;;;5108364;28;20406;-58
2023/04/06 12:37:06;;;;;;;13.18;1.83;;;11.80;99.90;;;;;;5109762;28;20402;-57
2023/04/06 12:39:40;;;;;;;10.25;1.70;;;12.10;99.90;;;;;;5109565;28;20039;-57
2023/04/06 12:42:09;;;;;;;5.88;1.02;;;12.70;99.90;;;;;;5094695;28;20047;-58
2023/04/06 12:44:36;;;;;;;5.75;0.80;;;12.80;99.90;;;;;;5110238;28;20047;-58
2023/04/06 12:47:04;;;;;;;8.13;0.70;;;12.70;99.90;;;;;;5104685;28;20051;-56
2023/04/06 12:49:38;;;;;;;5.95;0.77;;;12.60;99.90;;;;;;5094183;28;20040;-57
2023/04/06 12:52:06;;;;;;;4.10;0.70;;;12.30;99.90;;;;;;5109335;28;20035;-57
2023/04/06 12:54:33;;;;;;;9.85;1.23;;;12.10;99.90;;;;;;5109671;28;20509;-57
2023/04/06 12:57:04;;;;;;;6.15;1.40;;;11.90;99.90;;;;;;5109626;28;20043;-56
2023/04/06 12:59:35;;;;;;;8.20;1.70;;;11.80;99.90;;;;;;5109850;28;20479;-57
2023/04/06 13:02:03;;;;;;;7.75;0.82;;;11.70;99.90;;;;;;5099032;28;20050;-57
2023/04/06 13:04:32;;;;;;;6.22;1.00;;;12.00;99.90;;;;;;5090729;28;20509;-58
2023/04/06 13:07:00;;;;;;;8.60;1.52;;;13.20;99.90;;;;;;5085319;28;20063;-58
2023/04/06 13:09:28;;;;;;;8.52;1.02;;;13.20;99.90;;;;;;5103949;28;20032;-57